createdAt,value
2022-09-12T00:04:07.641Z,12.12
2022-09-12T00:09:13.815Z,12.12
2022-09-12T00:14:19.057Z,12.15
2022-09-12T00:19:22.487Z,12.17
2022-09-12T00:24:25.790Z,12.16
2022-09-12T00:29:29.065Z,12.18
2022-09-12T00:34:32.288Z,12.16
2022-09-12T00:39:35.544Z,12.13
2022-09-12T00:44:38.706Z,12.19
2022-09-12T00:49:50.337Z,12.20
2022-09-12T00:55:00.414Z,12.15
2022-09-12T01:00:18.006Z,12.11
2022-09-12T01:05:23.087Z,12.09
2022-09-12T01:10:26.314Z,12.12
2022-09-12T01:15:29.499Z,12.13
2022-09-12T01:21:28.613Z,12.13
2022-09-12T01:27:10.231Z,12.10
2022-09-12T01:32:22.590Z,12.05
2022-09-12T01:37:40.550Z,12.04
2022-09-12T01:43:06.378Z,12.03
2022-09-12T01:48:20.672Z,12.04
2022-09-12T01:53:28.854Z,12.07
2022-09-12T01:58:49.642Z,12.04
2022-09-12T02:04:24.773Z,12.02
2022-09-12T02:09:42.318Z,12.00
2022-09-12T02:14:51.161Z,11.99
2022-09-12T02:20:07.004Z,11.96
2022-09-12T02:25:12.246Z,11.90
2022-09-12T02:30:17.381Z,11.80
2022-09-12T02:35:34.127Z,11.67
2022-09-12T02:40:38.076Z,11.55
2022-09-12T02:45:41.576Z,11.49
2022-09-12T02:50:45.819Z,11.42
2022-09-12T02:55:55.642Z,11.44
2022-09-12T03:01:40.680Z,11.48
2022-09-12T03:07:02.357Z,11.62
2022-09-12T03:12:06.638Z,11.69
2022-09-12T03:17:19.049Z,11.73
2022-09-12T03:22:33.061Z,11.76
2022-09-12T03:27:41.428Z,11.76
2022-09-12T03:32:52.592Z,11.75
2022-09-12T03:37:55.896Z,11.73
2022-09-12T03:42:59.766Z,11.69
2022-09-12T03:48:04.140Z,11.69
2022-09-12T03:53:12.996Z,11.64
2022-09-12T03:58:20.052Z,11.59
2022-09-12T04:03:23.916Z,11.57
2022-09-12T04:08:27.189Z,11.56
2022-09-12T04:13:30.493Z,11.55
2022-09-12T04:18:34.014Z,11.56
2022-09-12T04:23:37.351Z,11.60
2022-09-12T04:28:41.541Z,11.65
2022-09-12T04:33:45.667Z,11.73
2022-09-12T04:38:49.239Z,11.80
2022-09-12T04:43:58.497Z,11.91
2022-09-12T04:49:01.705Z,11.97
2022-09-12T04:54:09.292Z,12.07
2022-09-12T04:59:14.529Z,12.14
2022-09-12T05:04:19.194Z,12.26
2022-09-12T05:09:22.963Z,12.39
2022-09-12T05:14:26.695Z,12.52
2022-09-12T05:19:30.952Z,12.61
2022-09-12T05:24:35.899Z,12.80
2022-09-12T05:29:39.152Z,12.97
2022-09-12T05:34:42.386Z,13.18
2022-09-12T05:39:46.257Z,13.49
2022-09-12T05:44:49.558Z,13.67
2022-09-12T05:49:53.731Z,13.61
2022-09-12T05:54:58.736Z,13.54
2022-09-12T06:00:05.993Z,13.63
2022-09-12T06:05:16.066Z,13.78
2022-09-12T06:10:19.364Z,13.85
2022-09-12T06:15:23.091Z,13.97
2022-09-12T06:20:26.494Z,14.02
2022-09-12T06:25:30.256Z,14.16
2022-09-12T06:30:33.506Z,14.35
2022-09-12T06:35:38.495Z,14.60
2022-09-12T06:40:44.776Z,14.64
2022-09-12T06:45:50.116Z,14.65
2022-09-12T06:51:01.863Z,14.90
2022-09-12T06:56:10.410Z,14.95
2022-09-12T07:01:16.312Z,14.99
2022-09-12T07:06:21.375Z,14.91
2022-09-12T07:11:27.812Z,14.99
2022-09-12T07:16:35.470Z,15.19
2022-09-12T07:21:40.787Z,15.46
2022-09-12T07:26:44.362Z,15.72
2022-09-12T07:31:47.937Z,16.06
2022-09-12T07:36:51.086Z,16.18
2022-09-12T07:41:55.083Z,16.25
2022-09-12T07:46:58.700Z,16.50
2022-09-12T07:52:02.822Z,16.73
2022-09-12T07:57:06.235Z,16.80
2022-09-12T08:02:17.452Z,17.15
2022-09-12T08:07:21.462Z,17.35
2022-09-12T08:12:24.679Z,17.12
2022-09-12T08:17:27.977Z,17.25
2022-09-12T08:22:34.148Z,17.24
2022-09-12T08:27:39.301Z,17.40
2022-09-12T08:32:42.460Z,17.62
2022-09-12T08:37:46.151Z,17.63
2022-09-12T08:42:49.258Z,17.74
2022-09-12T08:47:52.572Z,17.79
2022-09-12T08:53:13.507Z,17.43
2022-09-12T08:58:20.425Z,17.82
2022-09-12T09:03:45.504Z,18.16
2022-09-12T09:09:26.390Z,18.21
2022-09-12T09:14:56.597Z,18.20
2022-09-12T09:20:16.845Z,18.24
2022-09-12T09:25:26.442Z,18.12
2022-09-12T09:30:31.112Z,17.99
2022-09-12T09:35:45.286Z,18.17
2022-09-12T09:41:00.585Z,18.38
2022-09-12T09:46:04.443Z,18.47
2022-09-12T09:51:09.813Z,18.58
2022-09-12T09:56:34.226Z,18.65
2022-09-12T10:01:49.438Z,18.50
2022-09-12T10:07:01.564Z,18.44
2022-09-12T10:12:29.726Z,18.58
2022-09-12T10:17:43.053Z,18.64
2022-09-12T10:22:48.385Z,19.02
2022-09-12T10:28:01.079Z,19.04
2022-09-12T10:33:09.308Z,18.87
2022-09-12T10:38:26.126Z,18.63
2022-09-12T10:43:37.946Z,18.57
2022-09-12T10:48:43.390Z,18.49
2022-09-12T10:53:47.157Z,18.59
2022-09-12T10:59:02.915Z,18.80
2022-09-12T11:04:28.894Z,18.93
2022-09-12T11:09:47.565Z,18.81
2022-09-12T11:15:04.539Z,18.54
2022-09-12T11:20:26.599Z,18.55
2022-09-12T11:25:30.330Z,18.88
2022-09-12T11:31:07.411Z,18.99
2022-09-12T11:36:43.832Z,18.89
2022-09-12T11:41:57.396Z,18.93
2022-09-12T11:47:01.673Z,19.13
2022-09-12T11:52:18.399Z,19.26
2022-09-12T11:57:46.210Z,19.61
2022-09-12T12:03:12.712Z,19.85
2022-09-12T12:08:16.624Z,19.82
2022-09-12T12:13:34.400Z,20.01
2022-09-12T12:18:38.926Z,19.86
2022-09-12T12:24:10.230Z,19.77
2022-09-12T12:29:16.673Z,19.87
2022-09-12T12:34:27.527Z,20.01
2022-09-12T12:39:33.757Z,20.01
2022-09-12T12:44:47.935Z,20.08
2022-09-12T12:49:53.280Z,19.91
2022-09-12T12:55:02.279Z,19.76
2022-09-12T13:00:33.066Z,19.80
2022-09-12T13:05:55.405Z,19.86
2022-09-12T13:11:08.853Z,19.80
2022-09-12T13:16:31.428Z,19.67
2022-09-12T13:21:38.479Z,19.60
2022-09-12T13:26:44.985Z,19.66
2022-09-12T13:31:59.278Z,19.79
2022-09-12T13:37:11.702Z,19.92
2022-09-12T13:42:41.448Z,19.84
2022-09-12T13:47:58.701Z,19.79
2022-09-12T13:53:04.648Z,19.78
2022-09-12T13:58:27.905Z,19.68
2022-09-12T14:03:58.046Z,19.41
2022-09-12T14:09:34.705Z,19.20
2022-09-12T14:14:44.224Z,19.00
2022-09-12T14:19:55.895Z,18.89
2022-09-12T14:24:59.839Z,18.72
2022-09-12T14:30:15.284Z,18.63
2022-09-12T14:35:30.188Z,18.58
2022-09-12T14:40:44.627Z,18.61
2022-09-12T14:46:09.180Z,18.56
2022-09-12T14:51:34.937Z,18.42
2022-09-12T14:57:01.960Z,18.38
2022-09-12T15:02:31.599Z,18.40
2022-09-12T15:07:36.751Z,18.40
2022-09-12T15:12:40.297Z,18.41
2022-09-12T15:17:43.893Z,18.40
2022-09-12T15:22:50.628Z,18.34
2022-09-12T15:27:58.501Z,18.19
2022-09-12T15:33:04.835Z,18.02
2022-09-12T15:38:13.640Z,17.90
2022-09-12T15:43:21.436Z,17.70
2022-09-12T15:48:32.119Z,17.56
2022-09-12T15:53:35.621Z,17.43
2022-09-12T15:58:54.609Z,17.36
2022-09-12T16:04:03.323Z,17.28
2022-09-12T16:09:16.679Z,17.13
2022-09-12T16:14:28.712Z,16.96
2022-09-12T16:19:32.516Z,16.77
2022-09-12T16:24:38.354Z,16.51
2022-09-12T16:29:41.914Z,16.26
2022-09-12T16:34:46.636Z,16.04
2022-09-12T16:39:50.374Z,15.79
2022-09-12T16:44:57.896Z,15.54
2022-09-12T16:50:02.119Z,15.30
2022-09-12T16:55:16.504Z,15.08
2022-09-12T17:00:31.543Z,14.86
2022-09-12T17:05:54.965Z,14.66
2022-09-12T17:11:05.852Z,14.45
2022-09-12T17:16:35.293Z,14.25
2022-09-12T17:21:41.119Z,14.07
2022-09-12T17:26:47.455Z,13.89
2022-09-12T17:32:02.550Z,13.78
2022-09-12T17:37:11.977Z,13.67
2022-09-12T17:42:30.131Z,13.52
2022-09-12T17:47:34.941Z,13.35
2022-09-12T17:52:39.989Z,13.16
2022-09-12T17:58:03.767Z,12.96
2022-09-12T18:03:11.361Z,12.84
2022-09-12T18:08:23.695Z,12.71
2022-09-12T18:13:42.364Z,12.64
2022-09-12T18:19:06.974Z,12.56
2022-09-12T18:24:11.827Z,12.48
2022-09-12T18:29:17.815Z,12.40
2022-09-12T18:34:28.872Z,12.30
2022-09-12T18:39:37.883Z,12.22
2022-09-12T18:44:55.262Z,12.20
2022-09-12T18:50:08.754Z,12.21
2022-09-12T18:55:17.776Z,12.15
2022-09-12T19:00:48.851Z,12.00
2022-09-12T19:06:02.176Z,11.92
2022-09-12T19:11:23.289Z,11.92
2022-09-12T19:16:56.396Z,11.88
2022-09-12T19:22:08.014Z,11.84
2022-09-12T19:27:20.879Z,11.71
2022-09-12T19:32:30.389Z,11.52
2022-09-12T19:37:37.164Z,11.40
2022-09-12T19:42:40.660Z,11.48
2022-09-12T19:47:45.499Z,11.53
2022-09-12T19:52:49.048Z,11.52
2022-09-12T19:57:52.927Z,11.38
2022-09-12T20:02:56.120Z,11.06
2022-09-12T20:07:59.900Z,10.90
2022-09-12T20:13:06.660Z,10.86
2022-09-12T20:18:28.972Z,10.93
2022-09-12T20:23:41.505Z,11.06
2022-09-12T20:28:46.994Z,11.12
2022-09-12T20:34:24.330Z,11.16
2022-09-12T20:39:38.283Z,11.15
2022-09-12T20:44:52.481Z,10.98
2022-09-12T20:50:05.710Z,10.87
2022-09-12T20:55:16.095Z,10.78
2022-09-12T21:00:26.857Z,10.77
2022-09-12T21:05:44.758Z,10.73
2022-09-12T21:10:48.755Z,10.57
2022-09-12T21:16:20.651Z,10.42
2022-09-12T21:21:30.420Z,10.28
2022-09-12T21:26:39.281Z,10.14
2022-09-12T21:31:45.774Z,9.98
2022-09-12T21:36:53.974Z,9.99
2022-09-12T21:42:00.180Z,9.99
2022-09-12T21:47:25.821Z,9.97
2022-09-12T21:52:33.012Z,10.05
2022-09-12T21:57:37.718Z,10.10
2022-09-12T22:02:43.019Z,10.08
2022-09-12T22:07:50.881Z,10.04
2022-09-12T22:13:17.084Z,10.08
2022-09-12T22:18:49.167Z,9.99
2022-09-12T22:24:13.762Z,9.86
2022-09-12T22:29:17.630Z,9.77
2022-09-12T22:34:28.402Z,9.68
2022-09-12T22:39:36.172Z,9.60
2022-09-12T22:44:39.486Z,9.68
2022-09-12T22:49:44.247Z,9.75
2022-09-12T22:54:48.062Z,9.65
2022-09-12T22:59:51.335Z,9.61
2022-09-12T23:04:55.328Z,9.55
2022-09-12T23:09:58.488Z,9.52
2022-09-12T23:15:01.699Z,9.55
2022-09-12T23:20:06.386Z,9.53
2022-09-12T23:25:11.088Z,9.59
2022-09-12T23:30:25.765Z,9.53
2022-09-12T23:35:29.211Z,9.56
2022-09-12T23:40:32.690Z,9.50
2022-09-12T23:45:35.986Z,9.40
2022-09-12T23:50:39.726Z,9.44
2022-09-12T23:55:43.876Z,9.37
